Latest Weather Observations for Victoria River Downs

IDD60801

Issued at 11:01 pm CST Monday 6 July 2020 (issued every 10 minutes, with the page automatically refreshed every 10 minutes)

About weather observations | Map of weather stations | Latest weather observations for NT | Other Formats
Station Details ID: 014825 Name: VICTORIA RIVER DOWNS Lat: -16.40 Lon: 131.01 Height: 88.5 m
Data from the previous 72 hours. | See also: Recent months at Victoria River Downs
Date/Time
CST
Temp
°C
App
Temp
°C
Dew
Point
°C
Rel
Hum
%
Delta-T
°C
Wind Press
QNH
hPa
Press
MSL
hPa
Rain since
9am
mm
Dir  Spd
km/h
Gust
km/h
Spd
kts
Gust
kts
06/11:00pm 17.2 13.0 -3.5 24 8.3 SSE 9 13 5 7 1019.0 1018.8 0.0
06/10:30pm 18.2 13.3 -3.8 22 8.9 SSE 13 20 7 11 1018.9 1018.7 0.0
06/10:00pm 18.8 14.3 -3.3 22 9.1 SSE 11 17 6 9 1019.0 1018.8 0.0
06/09:30pm 19.8 15.3 -3.1 21 9.5 SSE 11 15 6 8 1018.8 1018.6 0.0
06/09:00pm 20.0 15.6 -2.3 22 9.4 SE 11 15 6 8 1018.5 1018.3 0.0
06/08:30pm 20.3 16.0 -1.5 23 9.4 SE 11 15 6 8 1018.3 1018.1 0.0
06/08:00pm 20.9 17.1 -1.0 23 9.6 SSE 9 13 5 7 1018.0 1017.8 0.0
06/07:30pm 21.4 17.5 -1.2 22 9.9 SSE 9 11 5 6 1017.5 1017.3 0.0
06/07:00pm 22.6 18.6 -2.2 19 10.8 SSE 9 13 5 7 1016.9 1016.6 0.0
06/06:30pm 24.0 19.7 -1.8 18 11.4 SE 11 17 6 9 1016.6 1016.3 0.0
06/06:00pm 25.7 21.1 -1.2 17 12.2 SE 13 20 7 11 1016.4 1016.2 0.0
06/05:30pm 26.5 22.0 -0.5 17 12.5 SE 13 24 7 13 1016.4 1016.1 0.0
06/05:00pm 26.9 21.9 -1.0 16 12.8 SE 15 26 8 14 1016.1 1015.8 0.0
06/04:30pm 27.1 21.9 0.0 17 12.7 SSE 17 26 9 14 1015.9 1015.6 0.0
06/04:00pm 26.9 21.5 -1.0 16 12.8 SE 17 28 9 15 1016.1 1015.8 0.0
06/03:30pm 27.2 22.0 0.1 17 12.8 SE 17 28 9 15 1016.3 1016.0 0.0
06/03:00pm 26.5 21.7 0.3 18 12.3 SE 15 26 8 14 1016.6 1016.4 0.0
06/02:30pm 26.6 22.2 2.5 21 11.8 SE 15 26 8 14 1016.9 1016.6 0.0
06/02:00pm 26.6 21.4 0.4 18 12.3 SE 17 30 9 16 1017.3 1017.0 0.0
06/01:30pm 25.3 20.6 -1.5 17 12.1 SE 13 26 7 14 1017.9 1017.7 0.0
06/01:00pm 24.7 19.3 -1.2 18 11.7 SE 17 30 9 16 1018.5 1018.3 0.0
06/12:30pm 23.6 18.6 -1.3 19 11.1 ESE 15 24 8 13 1019.1 1018.9 0.0
06/12:00pm 23.5 18.6 -0.7 20 10.9 SSE 15 26 8 14 1019.8 1019.5 0.0
06/11:30am 22.3 17.4 -3.1 18 10.8 SE 13 19 7 10 1020.1 1019.9 0.0
06/11:00am 22.0 17.3 -2.0 20 10.4 ESE 13 19 7 10 1020.6 1020.4 0.0
06/10:30am 21.4 15.8 -2.5 20 10.2 ESE 17 26 9 14 1021.0 1020.8 0.0
06/10:00am 20.1 14.5 -2.9 21 9.6 SSE 17 28 9 15 1021.2 1021.0 0.0
06/09:30am 19.4 14.3 -1.7 24 9.0 SSE 15 28 8 15 1021.2 1021.0 0.0
06/09:00am 18.2 14.2 -2.1 25 8.5 SE 9 11 5 6 1021.1 1020.9 0.0
06/08:30am 15.2 13.1 1.4 39 6.0 SW 2 7 1 4 1021.0 1020.8 0.0
06/08:00am 11.4 8.1 0.2 46 4.6 W 7 7 4 4 1020.5 1020.3 0.0
06/07:30am 9.1 7.1 -0.2 52 3.7 CALM 0 0 0 0 1020.2 1020.0 0.0
06/07:00am 9.1 7.2 0.3 54 3.5 CALM 0 2 0 1 1019.9 1019.7 0.0
06/06:30am 10.0 6.7 0.3 51 3.9 SW 7 9 4 5 1019.7 1019.5 0.0
06/06:00am 9.7 6.5 -0.8 48 4.1 SW 6 7 3 4 1019.2 1019.0 0.0
06/05:30am 10.6 7.2 -0.5 46 4.5 SW 7 9 4 5 1019.0 1018.8 0.0
06/05:00am 11.1 7.6 -1.0 43 4.8 W 7 9 4 5 1018.9 1018.7 0.0
06/04:30am 11.5 8.1 -0.6 43 4.9 W 7 9 4 5 1018.9 1018.7 0.0
06/04:00am 11.5 9.3 -1.3 41 5.1 CALM 0 0 0 0 1018.7 1018.5 0.0
06/03:30am 12.1 8.2 -1.4 39 5.4 W 9 9 5 5 1018.6 1018.4 0.0
06/03:00am 12.9 10.8 -1.1 38 5.7 CALM 0 0 0 0 1018.7 1018.5 0.0
06/02:30am 12.5 10.4 -1.1 39 5.5 CALM 0 0 0 0 1018.7 1018.5 0.0
06/02:00am 13.0 9.6 -0.3 40 5.5 S 7 9 4 5 1018.7 1018.5 0.0
06/01:30am 13.6 10.2 -0.4 38 5.8 S 7 9 4 5 1018.8 1018.6 0.0
06/01:00am 14.1 11.1 -1.5 34 6.3 S 4 9 2 5 1019.0 1018.8 0.0
06/12:30am 15.8 11.9 -1.3 31 7.1 S 9 9 5 5 1019.0 1018.8 0.0
06/12:00am 17.3 13.9 -0.9 29 7.7 S 7 9 4 5 1018.9 1018.7 0.0
 
Date/Time
CST
Temp
°C
App
Temp
°C
Dew
Point
°C
Rel
Hum
%
Delta-T
°C
Wind Press
QNH
hPa
Press
MSL
hPa
Rain since
9am
mm
Dir  Spd
km/h
Gust
km/h
Spd
kts
Gust
kts
05/11:30pm 17.4 13.9 -1.3 28 7.9 SSE 7 11 4 6 1018.8 1018.6 0.0
05/11:00pm 18.7 14.8 -1.7 25 8.6 S 9 11 5 6 1018.8 1018.6 0.0
05/10:30pm 19.2 15.3 -1.8 24 8.9 SSE 9 11 5 6 1018.6 1018.4 0.0
05/10:00pm 18.9 15.1 -1.0 26 8.6 SSE 9 13 5 7 1018.5 1018.3 0.0
05/09:30pm 19.5 15.7 -1.0 25 8.9 SSE 9 11 5 6 1018.3 1018.1 0.0
05/09:00pm 19.8 16.1 -0.2 26 8.8 SSE 9 11 5 6 1018.0 1017.8 0.0
05/08:30pm 19.6 16.2 2.0 31 8.1 SSE 9 11 5 6 1017.7 1017.5 0.0
05/08:00pm 20.8 17.0 -0.5 24 9.4 SSE 9 11 5 6 1017.4 1017.1 0.0
05/07:30pm 21.9 18.0 -1.4 21 10.2 SSE 9 11 5 6 1016.9 1016.6 0.0
05/07:00pm 22.8 18.8 -2.0 19 10.8 SE 9 11 5 6 1016.7 1016.4 0.0
05/06:30pm 24.0 20.1 -1.8 18 11.4 SSE 9 13 5 7 1016.4 1016.1 0.0
05/06:00pm 25.7 21.0 -2.0 16 12.4 SE 13 19 7 10 1016.0 1015.8 0.0
05/05:30pm 26.3 21.5 -2.4 15 12.8 SE 13 20 7 11 1015.7 1015.4 0.0
05/05:00pm 26.5 21.0 -2.2 15 12.9 ESE 17 28 9 15 1015.6 1015.3 0.0
05/04:30pm 26.7 21.7 -1.2 16 12.8 SE 15 26 8 14 1015.5 1015.2 0.0
05/04:00pm 26.6 20.7 -2.1 15 12.9 SE 19 32 10 17 1015.8 1015.5 0.0
05/03:30pm 26.3 20.9 -1.5 16 12.6 SSE 17 26 9 14 1016.2 1015.9 0.0
05/03:00pm 26.8 22.5 1.3 19 12.2 ESE 13 24 7 13 1016.5 1016.3 0.0
05/02:30pm 26.4 21.6 0.2 18 12.3 ESE 15 28 8 15 1016.9 1016.6 0.0
05/02:00pm 26.0 21.2 -0.1 18 12.1 SE 15 26 8 14 1017.3 1017.0 0.0
05/01:30pm 25.4 21.0 0.1 19 11.7 ESE 13 22 7 12 1017.9 1017.7 0.0
05/01:00pm 24.8 19.9 -0.4 19 11.5 SE 15 26 8 14 1018.6 1018.4 0.0
05/12:30pm 24.2 19.3 -0.2 20 11.2 SE 15 28 8 15 1019.4 1019.2 0.0
05/12:00pm 23.9 18.5 -1.1 19 11.2 SE 17 26 9 14 1020.0 1019.8 0.0
05/11:30am 23.0 17.2 -1.8 19 10.9 SE 19 32 10 17 1020.6 1020.4 0.0
05/11:00am 22.5 16.7 -1.6 20 10.6 SE 19 30 10 16 1021.2 1021.0 0.0
05/10:30am 21.8 16.3 -2.1 20 10.3 SE 17 28 9 15 1021.3 1021.1 0.0
05/10:00am 20.9 15.5 -1.0 23 9.6 ESE 17 30 9 16 1021.5 1021.3 0.0
05/09:30am 20.2 14.1 -2.2 22 9.5 SE 20 32 11 17 1021.5 1021.3 0.0
05/09:00am 19.7 13.6 -2.0 23 9.2 SE 20 33 11 18 1021.3 1021.1 0.0
05/08:30am 18.8 14.4 -2.2 24 8.8 SSE 11 24 6 13 1020.9 1020.7 0.0
05/08:00am 17.0 13.2 -0.7 30 7.5 S 9 15 5 8 1020.6 1020.4 0.0
05/07:30am 15.4 11.8 -2.1 30 7.1 S 7 9 4 5 1020.1 1019.9 0.0
05/07:00am 15.8 11.8 -2.2 29 7.3 SSE 9 11 5 6 1019.8 1019.6 0.0
05/06:30am 16.1 12.5 -1.9 29 7.4 SSE 7 9 4 5 1019.4 1019.2 0.0
05/06:00am 17.2 13.2 -2.4 26 8.0 SSE 9 11 5 6 1019.3 1019.1 0.0
05/05:30am 18.1 14.4 -2.8 24 8.6 SSE 7 11 4 6 1019.2 1019.0 0.0
05/05:00am 18.9 14.5 -2.7 23 9.0 SE 11 17 6 9 1019.0 1018.8 0.0
05/04:30am 19.1 14.6 -3.1 22 9.2 SSE 11 17 6 9 1019.0 1018.8 0.0
05/04:00am 19.6 15.2 -2.7 22 9.3 SSE 11 17 6 9 1018.9 1018.7 0.0
05/03:30am 20.0 15.5 -3.0 21 9.6 SSE 11 19 6 10 1019.0 1018.8 0.0
05/03:00am 20.0 15.9 -3.0 21 9.6 S 9 15 5 8 1019.0 1018.8 0.0
05/02:30am 20.3 16.2 -2.7 21 9.7 S 9 13 5 7 1018.9 1018.7 0.0
05/02:00am 20.4 16.1 -2.0 22 9.6 SSE 11 15 6 8 1018.8 1018.6 0.0
05/01:30am 20.8 16.8 -2.3 21 9.9 SSE 9 15 5 8 1018.9 1018.7 0.0
05/01:00am 21.0 16.7 -1.5 22 9.8 SE 11 17 6 9 1019.0 1018.8 0.0
05/12:30am 21.3 17.0 -1.9 21 10.0 SSE 11 17 6 9 1019.2 1019.0 0.0
05/12:00am 21.9 17.6 -1.4 21 10.2 SE 11 15 6 8 1018.9 1018.7 0.0
 
Date/Time
CST
Temp
°C
App
Temp
°C
Dew
Point
°C
Rel
Hum
%
Delta-T
°C
Wind Press
QNH
hPa
Press
MSL
hPa
Rain since
9am
mm
Dir  Spd
km/h
Gust
km/h
Spd
kts
Gust
kts
04/11:30pm 22.3 17.7 -1.1 21 10.4 SE 13 19 7 10 1018.9 1018.7 0.0
04/11:00pm 22.6 18.0 -0.8 21 10.4 SE 13 22 7 12 1018.8 1018.6 0.0
04/10:30pm 22.8 18.3 0.0 22 10.4 SE 13 24 7 13 1018.9 1018.7 0.0
04/10:00pm 22.9 18.1 0.1 22 10.4 SE 15 26 8 14 1019.0 1018.8 0.0
04/09:30pm 23.1 17.9 0.2 22 10.5 SE 17 28 9 15 1018.8 1018.6 0.0
04/09:00pm 23.2 18.3 -0.3 21 10.6 SE 15 24 8 13 1018.8 1018.6 0.0
04/08:30pm 23.0 18.6 0.2 22 10.4 SE 13 19 7 10 1018.6 1018.4 0.0
04/08:00pm 23.9 19.4 -0.4 20 11.0 SSE 13 19 7 10 1018.4 1018.2 0.0
04/07:30pm 24.3 20.2 -0.1 20 11.2 SE 11 17 6 9 1017.9 1017.7 0.0
04/07:00pm 25.4 21.2 -0.6 18 11.9 SE 11 17 6 9 1017.5 1017.3 0.0
04/06:30pm 26.0 21.4 -0.9 17 12.3 SE 13 19 7 10 1017.2 1016.9 0.0
04/06:00pm 26.8 21.9 -0.3 17 12.6 SSE 15 26 8 14 1017.0 1016.8 0.0
04/05:30pm 28.2 23.6 -0.9 15 13.5 ESE 13 22 7 12 1016.7 1016.4 0.0
04/05:00pm 28.5 23.2 -0.6 15 13.7 SE 17 28 9 15 1016.5 1016.2 0.0
04/04:30pm 29.1 23.9 -0.1 15 13.9 SE 17 26 9 14 1016.6 1016.3 0.0
04/04:00pm 28.8 24.3 -0.4 15 13.8 SE 13 26 7 14 1016.7 1016.4 0.0
04/03:30pm 29.0 24.3 0.7 16 13.6 SSE 15 26 8 14 1017.0 1016.7 0.0
04/03:00pm 28.7 23.0 -0.5 15 13.7 SE 19 35 10 19 1017.1 1016.9 0.0
04/02:30pm 28.3 23.6 0.9 17 13.2 ESE 15 30 8 16 1017.9 1017.7 0.0
04/02:00pm 27.1 22.0 0.8 18 12.5 SE 17 28 9 15 1018.3 1018.1 0.0
04/01:30pm 27.0 21.9 0.7 18 12.5 ESE 17 26 9 14 1018.9 1018.7 0.0
04/01:00pm 26.5 20.9 1.0 19 12.1 SE 20 35 11 19 1019.7 1019.5 0.0
04/12:30pm 25.7 20.1 1.1 20 11.7 SE 20 35 11 19 1020.2 1020.0 0.0
04/12:00pm 25.0 20.1 1.8 22 11.0 SSE 17 30 9 16 1021.0 1020.8 0.0
04/11:30am 25.2 19.8 1.3 21 11.3 SSE 19 30 10 16 1021.2 1021.0 0.0
04/11:00am 24.1 19.4 1.1 22 10.8 SE 15 26 8 14 1021.6 1021.4 0.0
04/10:30am 23.3 18.0 1.6 24 10.2 SE 19 32 10 17 1021.7 1021.5 0.0
04/10:00am 22.8 17.2 1.2 24 10.0 SSE 20 28 11 15 1021.9 1021.7 0.0
04/09:30am 22.5 17.5 1.5 25 9.8 SE 17 30 9 16 1021.9 1021.7 0.0
04/09:00am 22.0 16.7 1.6 26 9.5 SE 19 32 10 17 1021.6 1021.4 0.0
04/08:30am 22.2 16.8 2.3 27 9.4 SE 20 33 11 18 1021.3 1021.1 0.0
04/08:00am 22.3 17.6 2.9 28 9.3 SE 17 32 9 17 1021.0 1020.8 0.0
04/07:30am 22.5 18.0 2.1 26 9.6 SE 15 30 8 16 1020.4 1020.2 0.0
04/07:00am 22.6 17.7 2.1 26 9.7 SE 17 32 9 17 1020.1 1019.9 0.0
04/06:30am 23.3 18.9 2.7 26 9.9 SE 15 28 8 15 1019.8 1019.6 0.0
04/06:00am 23.6 19.3 3.5 27 9.8 SE 15 26 8 14 1019.6 1019.4 0.0
04/05:30am 23.9 19.2 3.2 26 10.1 SE 17 26 9 14 1019.3 1019.1 0.0
04/05:00am 24.3 20.2 4.1 27 10.0 ESE 15 28 8 15 1019.2 1019.0 0.0
04/04:30am 24.5 20.8 4.3 27 10.1 ESE 13 20 7 11 1019.0 1018.8 0.0
04/04:00am 24.9 21.2 4.6 27 10.2 ESE 13 19 7 10 1018.9 1018.7 0.0
04/03:30am 25.0 21.8 5.2 28 10.1 SE 11 19 6 10 1018.6 1018.4 0.0
04/03:00am 25.4 21.6 5.6 28 10.1 SE 15 26 8 14 1018.4 1018.2 0.0
04/02:30am 25.5 22.1 5.7 28 10.2 SE 13 20 7 11 1018.4 1018.2 0.0
04/02:00am 25.9 22.5 6.0 28 10.3 ESE 13 26 7 14 1018.4 1018.2 0.0
04/01:30am 26.1 22.1 6.7 29 10.2 SE 17 28 9 15 1018.3 1018.1 0.0
04/01:00am 26.3 22.8 7.4 30 10.1 SE 15 28 8 15 1018.3 1018.1 0.0
04/12:30am 26.3 22.9 7.8 31 9.9 SE 15 26 8 14 1018.3 1018.1 0.0
04/12:00am 26.2 23.3 8.2 32 9.7 SE 13 22 7 12 1018.4 1018.1 0.0
 
Date/Time
CST
Temp
°C
App
Temp
°C
Dew
Point
°C
Rel
Hum
%
Delta-T
°C
Wind Press
QNH
hPa
Press
MSL
hPa
Rain since
9am
mm
Dir  Spd
km/h
Gust
km/h
Spd
kts
Gust
kts
03/11:30pm 26.3 23.6 8.8 33 9.6 SE 13 19 7 10 1018.1 1017.9 0.0

Other formats

Comma delimited format used in spreadsheet applications
http://www.bom.gov.au/fwo/IDD60801/IDD60801.94232.axf

JavaScript Object Notation format (JSON) in row-major order
http://www.bom.gov.au/fwo/IDD60801/IDD60801.94232.json

Data quality

Most of these data are generated automatically and are frequently updated. Quality checks on data are not normally performed. It is possible for incorrect values to appear. Refer to information at About Latest Weather Observations and please check the disclaimer before using these data.